createdAt,value
2018-06-24T00:00:02.265Z,13.30
2018-06-24T00:04:53.154Z,13.30
2018-06-24T00:09:44.042Z,13.30
2018-06-24T00:14:34.926Z,13.20
2018-06-24T00:19:25.810Z,13.30
2018-06-24T00:24:16.707Z,13.20
2018-06-24T00:29:07.603Z,13.20
2018-06-24T00:33:58.499Z,13.20
2018-06-24T00:38:49.378Z,13.20
2018-06-24T00:43:40.268Z,13.20
2018-06-24T00:48:31.160Z,13.20
2018-06-24T00:53:22.800Z,13.20
2018-06-24T00:58:14.438Z,13.10
2018-06-24T01:03:06.065Z,13.10
2018-06-24T01:07:57.695Z,13.10
2018-06-24T01:12:49.335Z,13.10
2018-06-24T01:17:40.974Z,13.10
2018-06-24T01:22:32.604Z,13.10
2018-06-24T01:27:24.243Z,13.10
2018-06-24T01:32:15.878Z,13.00
2018-06-24T01:37:07.506Z,13.00
2018-06-24T01:41:59.158Z,13.00
2018-06-24T01:46:50.776Z,13.00
2018-06-24T01:51:42.416Z,13.00
2018-06-24T01:56:34.046Z,13.00
2018-06-24T02:01:24.922Z,13.00
2018-06-24T02:06:15.814Z,13.00
2018-06-24T02:11:06.702Z,13.00
2018-06-24T02:15:58.335Z,13.00
2018-06-24T02:20:49.953Z,13.00
2018-06-24T02:25:40.842Z,12.90
2018-06-24T02:30:31.742Z,13.00
2018-06-24T02:35:22.638Z,13.00
2018-06-24T02:40:14.264Z,13.00
2018-06-24T02:45:05.899Z,13.00
2018-06-24T02:49:57.536Z,12.90
2018-06-24T02:54:49.159Z,12.90
2018-06-24T02:59:40.799Z,12.90
2018-06-24T03:04:32.435Z,12.90
2018-06-24T03:09:23.318Z,12.90
2018-06-24T03:14:14.207Z,12.90
2018-06-24T03:19:05.126Z,12.90
2018-06-24T03:23:56.016Z,12.90
2018-06-24T03:28:47.651Z,12.80
2018-06-24T03:33:39.290Z,12.80
2018-06-24T03:38:30.918Z,12.80
2018-06-24T03:43:22.547Z,12.80
2018-06-24T03:48:14.184Z,12.80
2018-06-24T03:53:05.836Z,12.80
2018-06-24T03:57:57.481Z,12.80
2018-06-24T04:02:48.380Z,12.80
2018-06-24T04:07:40.007Z,12.80
2018-06-24T04:12:31.650Z,12.80
2018-06-24T04:17:23.274Z,12.80
2018-06-24T04:22:14.159Z,12.80
2018-06-24T04:27:05.045Z,12.80
2018-06-24T04:31:55.944Z,12.90
2018-06-24T04:36:47.574Z,12.90
2018-06-24T04:41:39.206Z,12.90
2018-06-24T04:46:30.839Z,12.90
2018-06-24T04:51:22.467Z,12.90
2018-06-24T04:56:13.343Z,12.90
2018-06-24T05:01:04.982Z,13.00
2018-06-24T05:05:55.858Z,12.90
2018-06-24T05:10:47.502Z,13.00
2018-06-24T05:15:38.386Z,13.00
2018-06-24T05:20:29.270Z,13.00
2018-06-24T05:25:20.159Z,13.00
2018-06-24T05:30:11.042Z,13.10
2018-06-24T05:35:01.941Z,13.10
2018-06-24T05:39:52.830Z,13.10
2018-06-24T05:44:43.715Z,13.10
2018-06-24T05:49:35.337Z,13.20
2018-06-24T05:54:26.286Z,13.10
2018-06-24T05:59:17.125Z,13.20
2018-06-24T06:04:08.026Z,13.30
2018-06-24T06:08:58.920Z,13.30
2018-06-24T06:13:51.004Z,13.40
2018-06-24T06:18:42.194Z,13.50
2018-06-24T06:23:33.826Z,13.60
2018-06-24T06:28:25.455Z,13.60
2018-06-24T06:33:17.090Z,13.70
2018-06-24T06:38:08.718Z,13.70
2018-06-24T06:42:59.590Z,13.70
2018-06-24T06:47:50.487Z,13.80
2018-06-24T06:52:41.374Z,13.80
2018-06-24T06:57:32.255Z,13.80
2018-06-24T07:02:23.138Z,13.80
2018-06-24T07:07:14.030Z,13.80
2018-06-24T07:12:05.658Z,13.80
2018-06-24T07:16:56.547Z,13.80
2018-06-24T07:21:47.455Z,13.80
2018-06-24T07:26:38.342Z,13.80
2018-06-24T07:31:29.238Z,13.80
2018-06-24T07:36:20.866Z,13.80
2018-06-24T07:41:12.491Z,13.90
2018-06-24T07:46:04.110Z,13.80
2018-06-24T07:50:54.999Z,13.80
2018-06-24T07:55:45.895Z,13.90
2018-06-24T08:00:37.527Z,13.90
2018-06-24T08:05:29.166Z,13.90
2018-06-24T08:10:20.836Z,13.90
2018-06-24T08:15:11.738Z,13.90
2018-06-24T08:20:02.620Z,13.90
2018-06-24T08:24:53.531Z,13.90
2018-06-24T08:29:44.421Z,13.90
2018-06-24T08:34:35.340Z,13.90
2018-06-24T08:39:26.258Z,13.90
2018-06-24T08:44:17.140Z,13.80
2018-06-24T08:49:08.023Z,13.80
2018-06-24T08:53:58.926Z,13.90
2018-06-24T08:58:49.817Z,13.80
2018-06-24T09:03:40.711Z,13.90
2018-06-24T09:08:31.666Z,13.90
2018-06-24T09:13:22.558Z,13.90
2018-06-24T09:18:13.456Z,14.00
2018-06-24T09:23:04.360Z,14.10
2018-06-24T09:27:55.994Z,14.30
2018-06-24T09:32:47.623Z,14.40
2018-06-24T09:37:38.520Z,14.40
2018-06-24T09:42:29.407Z,14.50
2018-06-24T09:47:20.294Z,14.60
2018-06-24T09:52:11.927Z,14.70
2018-06-24T09:57:03.548Z,14.70
2018-06-24T10:01:54.434Z,14.70
2018-06-24T10:06:45.326Z,14.80
2018-06-24T10:11:36.232Z,14.80
2018-06-24T10:16:27.886Z,15.00
2018-06-24T10:21:18.786Z,15.00
2018-06-24T10:26:09.683Z,15.00
2018-06-24T10:31:01.367Z,15.30
2018-06-24T10:35:52.251Z,15.30
2018-06-24T10:40:43.882Z,15.40
2018-06-24T10:45:35.518Z,15.40
2018-06-24T10:50:27.160Z,15.50
2018-06-24T10:55:18.059Z,15.50
2018-06-24T11:00:09.687Z,15.60
2018-06-24T11:05:00.581Z,15.50
2018-06-24T11:09:51.534Z,15.60
2018-06-24T11:14:42.370Z,15.70
2018-06-24T11:19:33.298Z,15.80
2018-06-24T11:24:24.183Z,15.80
2018-06-24T11:29:15.815Z,15.90
2018-06-24T11:34:06.708Z,15.90
2018-06-24T11:38:57.608Z,15.90
2018-06-24T11:43:48.493Z,16.00
2018-06-24T11:48:39.396Z,16.00
2018-06-24T11:53:31.026Z,16.00
2018-06-24T11:58:22.664Z,16.00
2018-06-24T12:03:14.302Z,16.00
2018-06-24T12:08:05.940Z,16.00
2018-06-24T12:12:57.581Z,16.10
2018-06-24T12:17:49.236Z,16.10
2018-06-24T12:22:40.126Z,16.00
2018-06-24T12:27:31.792Z,16.10
2018-06-24T12:32:22.674Z,16.20
2018-06-24T12:37:14.315Z,16.30
2018-06-24T12:42:05.942Z,16.30
2018-06-24T12:46:57.566Z,16.30
2018-06-24T12:51:48.467Z,16.30
2018-06-24T12:56:39.485Z,16.30
2018-06-24T13:01:30.378Z,16.30
2018-06-24T13:06:21.266Z,16.30
2018-06-24T13:11:12.934Z,16.30
2018-06-24T13:16:03.862Z,16.30
2018-06-24T13:20:54.742Z,16.30
2018-06-24T13:25:46.394Z,16.20
2018-06-24T13:30:37.278Z,16.20
2018-06-24T13:35:28.918Z,16.20
2018-06-24T13:40:20.548Z,16.20
2018-06-24T13:45:11.435Z,16.20
2018-06-24T13:50:02.607Z,16.20
2018-06-24T13:54:54.302Z,16.10
2018-06-24T13:59:45.222Z,16.10
2018-06-24T14:04:36.112Z,16.10
2018-06-24T14:09:27.012Z,16.10
2018-06-24T14:14:17.919Z,16.10
2018-06-24T14:19:08.815Z,16.10
2018-06-24T14:24:00.488Z,16.20
2018-06-24T14:28:51.396Z,16.20
2018-06-24T14:33:42.292Z,16.20
2018-06-24T14:38:33.926Z,16.40
2018-06-24T14:43:25.554Z,16.50
2018-06-24T14:48:16.451Z,16.40
2018-06-24T14:53:07.373Z,16.60
2018-06-24T14:57:58.260Z,16.60
2018-06-24T15:02:49.163Z,16.70
2018-06-24T15:07:40.059Z,16.80
2018-06-24T15:12:31.708Z,16.90
2018-06-24T15:17:24.288Z,17.00
2018-06-24T15:22:15.248Z,16.90
2018-06-24T15:27:06.974Z,16.90
2018-06-24T15:31:57.884Z,16.90
2018-06-24T15:36:48.820Z,16.80
2018-06-24T15:41:39.724Z,16.70
2018-06-24T15:46:45.627Z,16.70
2018-06-24T15:51:37.250Z,16.50
2018-06-24T15:56:29.687Z,16.40
2018-06-24T16:01:20.601Z,16.40
2018-06-24T16:06:11.515Z,16.40
2018-06-24T16:11:02.439Z,16.30
2018-06-24T16:15:53.359Z,16.20
2018-06-24T16:20:44.389Z,16.20
2018-06-24T16:25:35.322Z,16.20
2018-06-24T16:30:26.322Z,16.10
2018-06-24T16:35:17.256Z,16.10
2018-06-24T16:40:08.261Z,16.10
2018-06-24T16:44:59.176Z,16.10
2018-06-24T16:49:50.143Z,16.00
2018-06-24T16:54:40.991Z,15.90
2018-06-24T16:59:31.888Z,15.90
2018-06-24T17:04:22.775Z,15.80
2018-06-24T17:09:13.666Z,15.80
2018-06-24T17:14:04.600Z,15.80
2018-06-24T17:18:55.491Z,15.70
2018-06-24T17:23:46.374Z,15.70
2018-06-24T17:28:38.012Z,15.60
2018-06-24T17:33:28.916Z,15.60
2018-06-24T17:38:20.547Z,15.50
2018-06-24T17:43:12.180Z,15.40
2018-06-24T17:48:03.852Z,15.30
2018-06-24T17:52:54.751Z,15.30
2018-06-24T17:57:46.388Z,15.20
2018-06-24T18:02:38.036Z,15.20
2018-06-24T18:07:28.927Z,15.20
2018-06-24T18:12:20.631Z,15.10
2018-06-24T18:17:11.548Z,15.10
2018-06-24T18:22:02.466Z,15.00
2018-06-24T18:26:53.368Z,15.00
2018-06-24T18:31:44.260Z,14.90
2018-06-24T18:36:35.150Z,14.90
2018-06-24T18:41:26.782Z,14.70
2018-06-24T18:46:17.674Z,14.70
2018-06-24T18:51:08.575Z,14.70
2018-06-24T18:55:59.483Z,14.70
2018-06-24T19:00:50.374Z,14.70
2018-06-24T19:05:42.007Z,14.60
2018-06-24T19:10:33.638Z,14.60
2018-06-24T19:15:25.279Z,14.50
2018-06-24T19:20:16.916Z,14.50
2018-06-24T19:25:09.015Z,14.50
2018-06-24T19:29:59.954Z,14.50
2018-06-24T19:34:51.586Z,14.40
2018-06-24T19:39:42.587Z,14.40
2018-06-24T19:44:33.553Z,14.40
2018-06-24T19:49:24.446Z,14.40
2018-06-24T19:54:15.326Z,14.30
2018-06-24T19:59:06.259Z,14.30
2018-06-24T20:03:57.143Z,14.30
2018-06-24T20:08:48.022Z,14.30
2018-06-24T20:13:39.017Z,14.30
2018-06-24T20:18:29.910Z,14.20
2018-06-24T20:23:20.799Z,14.20
2018-06-24T20:28:12.496Z,14.20
2018-06-24T20:33:03.400Z,14.20
2018-06-24T20:37:54.291Z,14.20
2018-06-24T20:42:45.184Z,14.20
2018-06-24T20:47:36.875Z,14.10
2018-06-24T20:52:27.868Z,14.10
2018-06-24T20:57:18.747Z,14.20
2018-06-24T21:02:09.630Z,14.10
2018-06-24T21:07:00.529Z,14.10
2018-06-24T21:11:51.432Z,14.10
2018-06-24T21:16:42.390Z,14.10
2018-06-24T21:21:33.305Z,14.10
2018-06-24T21:26:24.234Z,14.10
2018-06-24T21:31:15.208Z,14.10
2018-06-24T21:36:06.168Z,14.10
2018-06-24T21:40:57.058Z,14.10
2018-06-24T21:45:47.952Z,14.10
2018-06-24T21:50:39.639Z,14.00
2018-06-24T21:55:30.523Z,14.10
2018-06-24T22:00:21.410Z,14.10
2018-06-24T22:05:13.050Z,14.10
2018-06-24T22:10:04.679Z,14.10
2018-06-24T22:14:56.323Z,14.00
2018-06-24T22:19:48.010Z,14.00
2018-06-24T22:24:39.598Z,14.00
2018-06-24T22:29:31.243Z,14.00
2018-06-24T22:34:22.171Z,14.00
2018-06-24T22:39:13.120Z,14.00
2018-06-24T22:44:04.756Z,14.00
2018-06-24T22:48:55.639Z,14.00
2018-06-24T22:53:46.536Z,14.00
2018-06-24T22:58:38.166Z,14.00
2018-06-24T23:03:29.795Z,14.00
2018-06-24T23:08:20.670Z,14.00
2018-06-24T23:13:11.564Z,14.00
2018-06-24T23:18:02.460Z,14.00
2018-06-24T23:22:54.096Z,13.90
2018-06-24T23:27:45.727Z,13.90
2018-06-24T23:32:37.374Z,13.80
2018-06-24T23:37:29.014Z,13.80
2018-06-24T23:42:19.916Z,13.80
2018-06-24T23:47:11.560Z,13.80
2018-06-24T23:52:03.183Z,13.70
2018-06-24T23:56:54.822Z,13.70
